Time;durP1;ratioP1;P1;durP2;ratioP2;P2;SDS_P1;SDS_P2;PMS_P1;PMS_P2;Temp;Humidity;BMP_temperature;BMP_pressure;BME280_temperature;BME280_humidity;BME280_pressure;Samples;Min_cycle;Max_cycle;Signal;HPM_P1;HPM_P2
2022/09/19 00:01:35;;;;;;;4.57;1.55;;;;;;;7.80;67.85;94004.00;5147208;27;20015;-78
2022/09/19 00:04:02;;;;;;;6.20;1.30;;;;;;;7.79;67.62;94001.63;5147152;27;20022;-79
2022/09/19 00:06:29;;;;;;;2.45;1.27;;;;;;;7.72;66.66;94001.25;5147102;27;20091;-79
2022/09/19 00:08:56;;;;;;;3.75;1.30;;;;;;;7.71;66.55;93995.13;5146903;27;20039;-78
2022/09/19 00:11:23;;;;;;;4.35;1.67;;;;;;;7.68;66.35;93994.94;5147031;27;20112;-78
2022/09/19 00:13:50;;;;;;;5.93;1.48;;;;;;;7.61;66.39;93990.81;5146981;27;20023;-78
2022/09/19 00:16:21;;;;;;;2.97;1.55;;;;;;;7.58;67.07;93990.59;5146991;27;20027;-78
2022/09/19 00:18:47;;;;;;;3.67;1.35;;;;;;;7.59;67.49;93986.84;5146587;27;20030;-77
2022/09/19 00:21:20;;;;;;;3.55;1.23;;;;;;;7.58;67.97;93982.63;5147043;27;20210;-78
2022/09/19 00:26:29;;;;;;;4.22;1.30;;;;;;;7.53;66.35;93982.69;5146762;27;20038;-78
2022/09/19 00:28:54;;;;;;;1.83;0.98;;;;;;;7.49;66.15;93979.06;5146713;27;20035;-78
2022/09/19 00:31:29;;;;;;;5.85;1.48;;;;;;;7.44;66.28;93979.94;5146546;27;20064;-80
2022/09/19 00:33:55;;;;;;;2.65;1.63;;;;;;;7.40;66.91;93978.94;5146268;27;20042;-78
2022/09/19 00:36:21;;;;;;;2.53;1.40;;;;;;;7.41;67.89;93976.00;5146569;27;20023;-78
2022/09/19 00:38:47;;;;;;;3.95;1.73;;;;;;;7.42;68.72;93977.56;5146380;27;20034;-78
2022/09/19 00:41:26;;;;;;;4.05;1.52;;;;;;;7.39;68.34;93988.75;5146456;27;20027;-78
2022/09/19 00:43:55;;;;;;;4.78;1.30;;;;;;;7.33;68.36;93981.19;5146535;27;20011;-79
2022/09/19 00:46:22;;;;;;;4.50;1.55;;;;;;;7.34;68.68;93986.19;5146365;27;20027;-79
2022/09/19 00:48:53;;;;;;;2.00;1.23;;;;;;;7.31;68.84;93992.06;5146269;27;20049;-78
2022/09/19 00:51:31;;;;;;;4.28;1.50;;;;;;;7.28;69.01;93991.84;5146252;27;20019;-77
2022/09/19 00:54:00;;;;;;;4.40;2.17;;;;;;;7.26;69.18;93988.72;5146080;27;20027;-78
2022/09/19 00:56:27;;;;;;;4.60;1.92;;;;;;;7.25;68.63;93987.94;5145977;27;20019;-77
2022/09/19 00:58:54;;;;;;;8.38;2.53;;;;;;;7.25;68.51;93982.63;5145285;27;20026;-77
2022/09/19 01:01:20;;;;;;;5.25;2.47;;;;;;;7.26;68.84;93984.19;5145909;27;20046;-78
2022/09/19 01:03:46;;;;;;;4.72;2.05;;;;;;;7.26;68.81;93984.19;5145965;27;20187;-78
2022/09/19 01:06:21;;;;;;;4.78;2.20;;;;;;;7.26;68.74;93984.19;5145941;27;20019;-77
2022/09/19 01:08:51;;;;;;;6.15;2.40;;;;;;;7.27;69.24;93977.81;5145788;27;20043;-77
2022/09/19 01:12:01;;;;;;;8.32;2.35;;;;;;;7.23;69.75;93979.47;5145727;27;20035;-77
2022/09/19 01:14:45;;;;;;;10.55;1.80;;;;;;;7.19;70.07;93986.44;5145785;27;20015;-77
2022/09/19 01:17:19;;;;;;;4.85;2.13;;;;;;;7.21;70.21;93989.56;5145852;27;20031;-77
2022/09/19 01:19:59;;;;;;;4.78;2.40;;;;;;;7.21;70.37;93984.28;5145635;27;20317;-77
2022/09/19 01:22:34;;;;;;;5.30;2.22;;;;;;;7.15;70.46;93978.25;5145593;27;20031;-77
2022/09/19 01:25:16;;;;;;;5.32;2.22;;;;;;;7.12;70.47;93973.50;5145657;27;20023;-77
2022/09/19 01:28:18;;;;;;;4.93;2.63;;;;;;;7.09;70.81;93981.28;5145376;27;20027;-77
2022/09/19 01:31:19;;;;;;;5.78;1.95;;;;;;;7.06;70.88;93979.97;5145170;27;20019;-76
2022/09/19 01:33:52;;;;;;;3.65;1.80;;;;;;;7.05;70.97;93967.03;5141684;27;20286;-78
2022/09/19 01:36:22;;;;;;;6.97;2.38;;;;;;;7.02;71.18;93969.19;5145347;27;20305;-78
2022/09/19 01:38:49;;;;;;;4.70;2.33;;;;;;;6.99;71.46;93969.75;5145241;27;20019;-78
2022/09/19 01:41:16;;;;;;;6.32;2.60;;;;;;;6.97;71.50;93965.81;5145151;27;20026;-78
2022/09/19 01:43:41;;;;;;;6.30;2.63;;;;;;;6.92;71.60;93958.72;5145117;27;20015;-78
2022/09/19 01:46:23;;;;;;;6.05;2.45;;;;;;;6.92;71.75;93958.72;5145269;27;20040;-77
2022/09/19 01:49:07;;;;;;;5.00;2.45;;;;;;;6.91;71.77;93957.13;5145144;27;20023;-78
2022/09/19 01:51:47;;;;;;;4.20;1.88;;;;;;;6.90;71.85;93970.66;5145062;27;20023;-78
2022/09/19 01:54:32;;;;;;;10.05;2.28;;;;;;;6.86;71.69;93965.16;5145020;27;20027;-78
2022/09/19 01:57:33;;;;;;;7.10;2.38;;;;;;;6.87;71.89;93955.34;5126535;27;20102;-79
2022/09/19 02:00:15;;;;;;;3.22;1.92;;;;;;;6.85;71.63;93963.59;5130368;27;20043;-78
2022/09/19 02:03:01;;;;;;;5.30;2.40;;;;;;;6.81;71.76;93960.72;5144934;27;20038;-78
2022/09/19 02:05:50;;;;;;;3.17;1.65;;;;;;;6.74;70.62;93962.16;5144747;27;20023;-78
2022/09/19 02:08:28;;;;;;;3.42;1.73;;;;;;;6.67;71.00;93964.38;5144356;27;20077;-79
2022/09/19 02:10:57;;;;;;;4.75;1.40;;;;;;;6.57;71.93;93955.50;5143898;27;20023;-79
2022/09/19 02:13:26;;;;;;;4.43;2.05;;;;;;;6.53;72.44;93956.31;5144556;27;20045;-79
2022/09/19 02:16:00;;;;;;;9.23;2.38;;;;;;;6.48;73.56;93962.47;5144399;27;20056;-79
2022/09/19 02:18:36;;;;;;;5.32;2.58;;;;;;;6.46;73.95;93953.25;5144591;27;20034;-79
2022/09/19 02:21:07;;;;;;;10.40;2.35;;;;;;;6.42;74.16;93956.47;5144597;27;20034;-78
2022/09/19 02:23:46;;;;;;;4.28;2.33;;;;;;;6.46;74.25;93950.59;5144331;27;20014;-78
2022/09/19 02:26:16;;;;;;;5.93;2.00;;;;;;;6.43;74.65;93950.09;5144275;27;20363;-79
2022/09/19 02:28:44;;;;;;;5.32;2.13;;;;;;;6.48;74.24;93946.59;5144330;27;20023;-77
2022/09/19 02:31:12;;;;;;;6.18;2.92;;;;;;;6.47;74.22;93954.81;5144289;27;20052;-78
2022/09/19 02:33:39;;;;;;;5.50;1.83;;;;;;;6.51;73.98;93939.94;5144009;27;20015;-77
2022/09/19 02:36:14;;;;;;;4.38;2.40;;;;;;;6.52;73.94;93944.97;5142643;27;20011;-77
2022/09/19 02:38:49;;;;;;;5.32;2.55;;;;;;;6.52;73.99;93939.66;5143260;27;20030;-77
2022/09/19 02:41:42;;;;;;;8.68;2.30;;;;;;;6.54;73.81;93926.91;5144086;27;20030;-77
2022/09/19 02:44:08;;;;;;;5.95;2.00;;;;;;;6.55;73.15;93936.44;5144038;27;20046;-77
2022/09/19 02:46:49;;;;;;;5.85;2.15;;;;;;;6.51;72.25;93930.13;5125693;27;20019;-77
2022/09/19 02:49:17;;;;;;;9.85;2.10;;;;;;;6.48;72.67;93937.88;5143895;27;20103;-77
2022/09/19 02:51:56;;;;;;;3.83;2.35;;;;;;;6.48;72.59;93938.66;5144030;27;20031;-77
2022/09/19 02:54:31;;;;;;;6.22;2.13;;;;;;;6.46;72.70;93940.03;5143920;27;20114;-77
2022/09/19 02:57:01;;;;;;;5.22;1.88;;;;;;;6.46;72.84;93940.03;5143867;27;20309;-77
2022/09/19 02:59:31;;;;;;;3.38;1.70;;;;;;;6.48;72.93;93956.41;5143940;27;20359;-77
2022/09/19 03:02:12;;;;;;;9.85;2.80;;;;;;;6.44;72.82;93953.53;5143809;27;20015;-77
2022/09/19 03:04:43;;;;;;;5.03;2.15;;;;;;;6.47;72.68;93945.00;5143696;27;20022;-78
2022/09/19 03:07:15;;;;;;;5.05;2.13;;;;;;;6.45;72.47;93947.16;5143928;27;20023;-77
2022/09/19 03:09:48;;;;;;;5.13;1.98;;;;;;;6.41;72.82;93943.50;5143447;27;20241;-76
2022/09/19 03:12:21;;;;;;;6.63;2.55;;;;;;;6.38;73.08;93942.22;5143770;27;20027;-76
2022/09/19 03:14:49;;;;;;;4.38;2.38;;;;;;;6.34;73.01;93941.22;5143851;28;20015;-78
2022/09/19 03:17:18;;;;;;;6.55;2.70;;;;;;;6.32;73.25;93946.00;5143539;27;20019;-79
2022/09/19 03:19:47;;;;;;;3.03;1.88;;;;;;;6.34;73.03;93951.00;5143549;28;20014;-77
2022/09/19 03:22:13;;;;;;;4.38;1.83;;;;;;;6.34;72.87;93959.75;5144681;27;20095;-77
2022/09/19 03:24:39;;;;;;;4.60;1.98;;;;;;;6.30;73.19;93947.34;5147835;27;20019;-77
2022/09/19 03:27:05;;;;;;;3.42;1.75;;;;;;;6.28;73.26;93946.84;5147693;27;20022;-77
2022/09/19 03:29:31;;;;;;;7.38;1.95;;;;;;;6.26;73.33;93952.44;5147911;27;20118;-77
2022/09/19 03:31:56;;;;;;;6.78;2.88;;;;;;;6.23;73.38;93953.00;5147701;27;20102;-76
2022/09/19 03:34:23;;;;;;;4.15;2.17;;;;;;;6.18;73.30;93945.91;5147616;27;20365;-77
2022/09/19 03:36:48;;;;;;;3.22;2.00;;;;;;;6.18;73.45;93943.25;5147671;27;20034;-78
2022/09/19 03:39:14;;;;;;;7.43;2.10;;;;;;;6.17;73.40;93935.63;5147654;27;20034;-78
2022/09/19 03:41:40;;;;;;;3.95;2.13;;;;;;;6.19;72.88;93933.47;5147517;27;20193;-79
2022/09/19 03:44:06;;;;;;;3.75;1.77;;;;;;;6.20;72.86;93925.22;5129017;27;20110;-77
2022/09/19 03:46:32;;;;;;;5.60;2.13;;;;;;;6.21;73.04;93918.09;5147762;27;20023;-77
2022/09/19 03:49:00;;;;;;;3.58;2.08;;;;;;;6.17;73.08;93923.16;5147457;27;20326;-78
2022/09/19 03:51:26;;;;;;;4.82;1.70;;;;;;;6.14;73.31;93915.78;5147322;27;20038;-78
2022/09/19 03:53:52;;;;;;;13.35;2.53;;;;;;;6.16;73.19;93921.56;5128635;27;20128;-78
2022/09/19 03:56:18;;;;;;;3.15;1.75;;;;;;;6.17;73.25;93917.88;5147294;27;20369;-77
2022/09/19 03:58:43;;;;;;;3.67;2.15;;;;;;;6.17;72.96;93911.78;5147246;27;20217;-79
2022/09/19 04:01:12;;;;;;;2.83;1.63;;;;;;;6.16;73.18;93921.56;5147107;27;20046;-79
2022/09/19 04:03:38;;;;;;;6.03;2.10;;;;;;;6.14;72.98;93917.63;5147287;27;20026;-76
2022/09/19 04:06:04;;;;;;;7.47;2.28;;;;;;;6.17;72.99;93911.78;5147110;27;20023;-77
2022/09/19 04:08:31;;;;;;;3.85;2.10;;;;;;;6.17;72.75;93914.44;5147083;27;20043;-76
2022/09/19 04:10:57;;;;;;;9.35;3.28;;;;;;;6.13;72.87;93914.22;5146616;27;20060;-77
2022/09/19 04:13:22;;;;;;;8.48;3.55;;;;;;;6.13;73.04;93911.56;5146764;27;20087;-77
2022/09/19 04:15:49;;;;;;;10.23;3.45;;;;;;;6.13;72.96;93911.56;5146793;27;20086;-77
2022/09/19 04:18:16;;;;;;;6.57;3.45;;;;;;;6.12;72.95;93915.25;5146372;27;20019;-76
2022/09/19 04:20:41;;;;;;;7.00;3.22;;;;;;;6.14;72.99;93920.28;5146717;27;20027;-76
2022/09/19 04:23:07;;;;;;;16.05;3.35;;;;;;;6.11;72.99;93910.28;5146826;27;20029;-76
2022/09/19 04:25:35;;;;;;;13.55;3.17;;;;;;;6.16;72.95;93905.69;5146757;27;20255;-76
2022/09/19 04:28:08;;;;;;;4.80;2.67;;;;;;;6.14;73.03;93915.78;5146711;27;20064;-76
2022/09/19 04:30:35;;;;;;;7.03;3.78;;;;;;;6.15;73.32;93913.94;5146767;27;20053;-76
2022/09/19 04:33:03;;;;;;;8.82;2.95;;;;;;;6.16;73.16;93910.19;5146712;27;20027;-76
2022/09/19 04:35:37;;;;;;;6.22;3.35;;;;;;;6.18;73.01;93908.84;5145452;27;20225;-77
2022/09/19 04:38:07;;;;;;;10.95;2.83;;;;;;;6.21;73.18;93916.22;5146493;27;20318;-76
2022/09/19 04:40:45;;;;;;;3.95;2.10;;;;;;;6.23;72.65;93915.94;5146507;27;20065;-78
2022/09/19 04:43:12;;;;;;;9.75;2.72;;;;;;;6.23;72.71;93916.72;5146368;27;20023;-77
2022/09/19 04:45:40;;;;;;;6.15;2.28;;;;;;;6.28;72.79;93915.88;5146458;27;20198;-77
2022/09/19 04:48:06;;;;;;;6.40;2.28;;;;;;;6.38;73.17;93920.25;5146163;27;20027;-78
2022/09/19 04:50:35;;;;;;;6.78;3.30;;;;;;;6.40;73.03;93916.25;5146194;27;20023;-77
2022/09/19 04:53:00;;;;;;;6.20;2.97;;;;;;;6.46;72.89;93914.31;5146238;27;20285;-77
2022/09/19 04:55:27;;;;;;;18.92;3.67;;;;;;;6.49;72.96;93921.69;5127804;27;20054;-78
2022/09/19 04:57:54;;;;;;;9.30;3.30;;;;;;;6.57;73.15;93915.78;5146129;27;20038;-78
2022/09/19 05:00:36;;;;;;;9.80;3.25;;;;;;;6.63;73.07;93904.03;5127586;27;20033;-79
2022/09/19 05:03:11;;;;;;;8.20;3.53;;;;;;;6.70;73.34;93905.53;5145950;27;20332;-78
2022/09/19 05:05:44;;;;;;;16.90;4.93;;;;;;;6.80;72.61;93915.97;5145971;27;20082;-78
2022/09/19 05:08:10;;;;;;;;;;;;;;;6.84;72.56;93906.38;5146207;27;20402;-77
2022/09/19 05:10:35;;;;;;;6.97;3.10;;;;;;;6.88;72.55;93915.34;5145925;27;19903;-77
2022/09/19 05:13:01;;;;;;;12.85;4.25;;;;;;;7.00;71.68;93918.31;5145734;27;20182;-77
2022/09/19 05:15:26;;;;;;;11.57;3.92;;;;;;;7.02;71.57;93913.53;5145758;27;20047;-77
2022/09/19 05:17:55;;;;;;;15.82;4.53;;;;;;;7.05;71.56;93922.75;5145591;27;20019;-78
2022/09/19 05:20:26;;;;;;;12.35;3.90;;;;;;;7.14;71.18;93912.28;5145716;27;20102;-77
2022/09/19 05:22:56;;;;;;;12.23;4.22;;;;;;;7.21;70.99;93920.66;5145374;27;20023;-78
2022/09/19 05:25:22;;;;;;;12.95;3.88;;;;;;;7.28;71.15;93918.41;5145661;27;20102;-78
2022/09/19 05:27:47;;;;;;;11.32;4.18;;;;;;;7.35;70.70;93918.81;5145124;27;20049;-77
2022/09/19 05:30:13;;;;;;;7.07;4.30;;;;;;;7.40;70.19;93932.00;5145130;27;20022;-77
2022/09/19 05:32:44;;;;;;;11.27;4.55;;;;;;;7.43;70.26;93931.41;5126839;27;20255;-77
2022/09/19 05:35:11;;;;;;;18.00;4.63;;;;;;;7.50;70.48;93935.56;5145327;27;20309;-77
2022/09/19 05:37:40;;;;;;;11.45;4.18;;;;;;;7.40;70.89;93939.94;5145050;27;20027;-77
2022/09/19 05:40:07;;;;;;;9.77;4.00;;;;;;;7.47;71.13;93938.78;5145200;27;20053;-78
2022/09/19 05:42:32;;;;;;;10.52;4.45;;;;;;;7.41;71.61;93938.88;5145073;27;20037;-78
2022/09/19 05:44:58;;;;;;;16.35;4.80;;;;;;;7.24;72.22;93935.97;5144999;27;20328;-77
2022/09/19 05:47:26;;;;;;;9.13;4.15;;;;;;;7.31;72.84;93932.97;5144868;27;20309;-78
2022/09/19 05:49:51;;;;;;;8.20;4.10;;;;;;;7.38;72.12;93934.13;5144775;27;20019;-77
2022/09/19 05:55:01;;;;;;;8.32;4.88;;;;;;;7.54;71.71;93931.25;5145190;27;20119;-83
2022/09/19 05:57:26;;;;;;;12.13;5.07;;;;;;;7.62;71.57;93933.22;5145125;27;20333;-80
2022/09/19 05:59:53;;;;;;;11.88;4.40;;;;;;;7.72;71.50;93933.03;5144856;27;20357;-80
2022/09/19 06:02:20;;;;;;;12.48;4.45;;;;;;;7.75;71.26;93926.34;5144792;27;20019;-81
2022/09/19 06:04:45;;;;;;;15.25;5.93;;;;;;;7.83;71.17;93918.50;5144688;27;20046;-81
2022/09/19 06:07:11;;;;;;;10.85;4.72;;;;;;;7.92;71.21;93923.94;5144685;27;20030;-79
2022/09/19 06:09:42;;;;;;;10.23;4.82;;;;;;;8.00;71.80;93927.78;5144708;27;20043;-80
2022/09/19 06:12:07;;;;;;;17.10;5.00;;;;;;;8.13;71.11;93924.31;5144742;27;20023;-83
2022/09/19 06:14:35;;;;;;;7.22;3.60;;;;;;;8.23;69.42;93923.34;5124359;28;20083;-82
2022/09/19 06:17:00;;;;;;;11.57;3.78;;;;;;;8.34;68.56;93926.56;5124527;28;20069;-83
2022/09/19 06:19:26;;;;;;;8.32;4.10;;;;;;;8.41;66.91;93927.00;5105961;28;20059;-83
2022/09/19 06:21:51;;;;;;;13.20;3.60;;;;;;;8.42;66.29;93934.66;5124151;28;20348;-83
2022/09/19 06:24:17;;;;;;;11.35;4.18;;;;;;;8.50;66.63;93930.50;5105694;28;20020;-79
2022/09/19 06:26:42;;;;;;;7.20;3.30;;;;;;;8.55;66.62;93938.38;5123456;28;20024;-80
2022/09/19 06:29:10;;;;;;;6.70;3.30;;;;;;;8.66;67.03;93935.50;5123630;28;20019;-77
2022/09/19 06:31:38;;;;;;;17.10;3.85;;;;;;;8.74;66.76;93935.59;5123426;28;20312;-78
2022/09/19 06:34:03;;;;;;;9.45;4.45;;;;;;;8.86;65.64;93943.03;5123489;28;20121;-77
2022/09/19 06:36:29;;;;;;;12.20;3.40;;;;;;;8.92;65.60;93936.53;5123692;28;20023;-77
2022/09/19 06:38:56;;;;;;;9.93;3.70;;;;;;;8.98;64.09;93934.53;5123349;28;20051;-77
2022/09/19 06:41:22;;;;;;;5.53;3.30;;;;;;;9.02;63.62;93936.28;5123376;28;20110;-75
2022/09/19 06:43:49;;;;;;;8.57;3.47;;;;;;;9.13;63.39;93936.84;5123203;28;20015;-78
2022/09/19 06:46:15;;;;;;;8.13;3.60;;;;;;;9.21;63.66;93927.34;5123396;28;20023;-79
2022/09/19 06:48:41;;;;;;;9.63;3.45;;;;;;;9.19;62.62;93926.88;5123693;28;20019;-79
2022/09/19 06:51:06;;;;;;;12.90;3.40;;;;;;;9.35;62.26;93933.41;5123061;28;20028;-79
2022/09/19 06:53:32;;;;;;;9.20;2.92;;;;;;;9.42;62.58;93936.44;5105207;28;20019;-78
2022/09/19 06:56:00;;;;;;;6.18;2.13;;;;;;;9.53;62.82;93928.19;5123108;28;20019;-77
2022/09/19 06:58:28;;;;;;;7.18;2.47;;;;;;;9.66;62.21;93939.84;5122545;28;20124;-77
2022/09/19 07:00:54;;;;;;;8.95;2.80;;;;;;;9.74;61.18;93929.25;5122952;28;20491;-76
2022/09/19 07:03:19;;;;;;;4.70;2.20;;;;;;;9.88;60.33;93933.69;5122891;28;20020;-76
2022/09/19 07:05:45;;;;;;;6.57;2.50;;;;;;;9.93;60.45;93931.69;5122910;28;20015;-75
2022/09/19 07:08:13;;;;;;;5.97;2.70;;;;;;;10.10;60.48;93925.66;5122819;28;20055;-75
2022/09/19 07:10:42;;;;;;;5.18;2.13;;;;;;;10.22;60.11;93917.84;5122933;28;20062;-76
2022/09/19 07:13:13;;;;;;;5.03;2.35;;;;;;;10.34;60.34;93913.81;5122587;28;20036;-76
2022/09/19 07:15:42;;;;;;;8.35;2.17;;;;;;;10.50;59.68;93915.00;5104960;28;20024;-78
2022/09/19 07:18:08;;;;;;;7.03;2.53;;;;;;;10.63;57.99;93915.94;5122922;28;20019;-83
2022/09/19 07:20:36;;;;;;;10.63;1.98;;;;;;;10.74;57.73;93905.75;5123192;28;20061;-78
2022/09/19 07:23:03;;;;;;;6.30;2.72;;;;;;;10.87;57.15;93912.03;5122697;28;20038;-76
2022/09/19 07:25:29;;;;;;;6.72;2.72;;;;;;;10.95;56.72;93917.38;5122796;28;20027;-75
2022/09/19 07:28:00;;;;;;;11.10;2.38;;;;;;;11.00;56.63;93911.88;5104637;28;20043;-75
2022/09/19 07:30:26;;;;;;;7.75;2.20;;;;;;;11.06;56.60;93906.41;5122994;28;20309;-75
2022/09/19 07:32:57;;;;;;;5.28;2.92;;;;;;;11.10;56.21;93915.34;5104786;28;20027;-74
2022/09/19 07:35:23;;;;;;;13.80;2.17;;;;;;;11.13;55.38;93912.03;5122709;28;20027;-74
2022/09/19 07:37:52;;;;;;;10.93;2.33;;;;;;;11.26;55.41;93910.31;5122919;28;20027;-75
2022/09/19 07:40:17;;;;;;;7.55;2.75;;;;;;;11.32;53.86;93915.19;5122800;28;20229;-73
2022/09/19 07:42:43;;;;;;;10.93;2.40;;;;;;;11.31;55.48;93904.81;5122769;28;20028;-72
2022/09/19 07:45:09;;;;;;;18.17;4.60;;;;;;;11.37;55.73;93901.66;5123012;28;20034;-73
2022/09/19 07:47:34;;;;;;;3.47;1.58;;;;;;;11.36;55.08;93910.78;5122807;28;20086;-73
2022/09/19 07:50:00;;;;;;;6.60;1.85;;;;;;;11.36;54.94;93905.44;5122565;28;20045;-73
2022/09/19 07:52:26;;;;;;;6.60;1.80;;;;;;;11.47;54.86;93902.44;5122789;28;20328;-73
2022/09/19 07:54:51;;;;;;;8.93;1.92;;;;;;;11.59;53.86;93897.22;5122738;28;20029;-73
2022/09/19 07:57:19;;;;;;;6.38;2.10;;;;;;;11.50;53.70;93885.78;5122769;28;20236;-76
2022/09/19 07:59:45;;;;;;;6.60;1.67;;;;;;;11.56;54.02;93898.66;5122499;28;20034;-77
2022/09/19 08:02:11;;;;;;;6.57;1.85;;;;;;;11.64;52.88;93891.72;5122719;28;20028;-77
2022/09/19 08:04:37;;;;;;;5.07;2.15;;;;;;;11.72;53.02;93887.44;5122639;28;20174;-82
2022/09/19 08:07:06;;;;;;;5.30;1.40;;;;;;;11.83;53.29;93886.78;5121943;28;20099;-78
2022/09/19 08:09:33;;;;;;;13.45;2.50;;;;;;;11.99;52.53;93887.06;5124146;28;20153;-77
2022/09/19 08:12:03;;;;;;;5.25;1.58;;;;;;;12.10;52.51;93881.38;5126464;28;20020;-78
2022/09/19 08:14:29;;;;;;;4.82;1.88;;;;;;;12.23;52.29;93878.47;5126375;28;20073;-77
2022/09/19 08:16:54;;;;;;;6.80;1.58;;;;;;;12.12;50.46;93868.47;5126230;28;20027;-76
2022/09/19 08:19:20;;;;;;;7.50;1.80;;;;;;;12.22;51.41;93863.53;5126253;28;20034;-76
2022/09/19 08:21:45;;;;;;;9.85;2.22;;;;;;;12.21;48.61;93875.34;5126132;28;20024;-80
2022/09/19 08:24:11;;;;;;;9.35;2.10;;;;;;;12.32;49.37;93874.97;5126117;28;20031;-75
2022/09/19 08:26:36;;;;;;;6.20;1.60;;;;;;;12.47;49.41;93870.97;5126125;28;20325;-73
2022/09/19 08:29:02;;;;;;;5.70;1.77;;;;;;;12.61;49.10;93872.28;5125996;28;20047;-76
2022/09/19 08:31:27;;;;;;;8.52;2.05;;;;;;;12.72;47.57;93874.56;5125972;28;20399;-73
2022/09/19 08:33:52;;;;;;;5.82;1.50;;;;;;;12.81;47.79;93872.63;5125827;28;20261;-73
2022/09/19 08:36:18;;;;;;;7.57;1.85;;;;;;;12.83;47.65;93873.84;5125683;28;20026;-72
2022/09/19 08:38:44;;;;;;;8.05;2.25;;;;;;;12.96;46.86;93884.59;5125601;28;20027;-74
2022/09/19 08:41:46;;;;;;;5.70;2.00;;;;;;;13.06;44.37;93881.53;5125759;28;20053;-73
2022/09/19 08:44:21;;;;;;;7.88;1.80;;;;;;;12.99;44.19;93871.38;5125785;28;20080;-74
2022/09/19 08:46:50;;;;;;;5.43;1.77;;;;;;;13.01;44.53;93863.78;5125801;28;20015;-74
2022/09/19 08:49:27;;;;;;;2.45;1.30;;;;;;;13.10;44.89;93862.94;5125337;28;20045;-76
2022/09/19 08:52:22;;;;;;;4.47;1.88;;;;;;;13.11;44.92;93861.81;5125542;28;20369;-75
2022/09/19 08:54:52;;;;;;;6.00;2.20;;;;;;;13.28;45.38;93863.56;5125451;28;20031;-74
2022/09/19 08:57:27;;;;;;;4.90;2.13;;;;;;;13.33;45.20;93863.38;5125535;28;20054;-73
2022/09/19 09:00:00;;;;;;;3.90;2.58;;;;;;;13.38;45.14;93863.97;5125396;28;20332;-75
2022/09/19 09:02:49;;;;;;;6.85;1.98;;;;;;;13.54;46.65;93864.13;5125326;28;20302;-75
2022/09/19 09:05:20;;;;;;;7.45;1.60;;;;;;;13.65;46.17;93859.13;5125384;28;20030;-77
2022/09/19 09:07:54;;;;;;;6.72;3.50;;;;;;;13.74;45.89;93862.50;5125328;28;20098;-75
2022/09/19 09:11:01;;;;;;;8.27;2.45;;;;;;;13.78;45.29;93859.91;5125259;28;20257;-78
2022/09/19 09:13:36;;;;;;;8.23;2.20;;;;;;;13.81;45.22;93852.00;5062023;28;20100;-75
2022/09/19 09:16:19;;;;;;;4.65;1.70;;;;;;;13.81;44.26;93857.34;5118386;28;20036;-74
2022/09/19 09:18:56;;;;;;;6.72;2.17;;;;;;;13.93;43.63;93858.50;5125032;28;20019;-75
2022/09/19 09:21:46;;;;;;;6.28;2.40;;;;;;;14.11;43.52;93846.44;5124588;28;20255;-75
2022/09/19 09:24:20;;;;;;;7.55;2.00;;;;;;;14.24;42.27;93842.63;5124945;28;20018;-74
2022/09/19 09:26:49;;;;;;;5.13;1.45;;;;;;;14.38;41.90;93834.25;5124931;28;20023;-74
2022/09/19 09:29:32;;;;;;;5.13;2.47;;;;;;;14.51;41.64;93829.66;5124801;28;20023;-74
2022/09/19 09:32:14;;;;;;;6.13;2.00;;;;;;;14.50;40.98;93830.78;5124684;28;20035;-74
2022/09/19 09:34:54;;;;;;;10.30;2.45;;;;;;;14.42;40.83;93823.63;5124637;28;20030;-74
2022/09/19 09:37:26;;;;;;;4.13;1.98;;;;;;;14.47;39.31;93814.56;5124783;28;20039;-75
2022/09/19 09:39:59;;;;;;;;;;;;;;;14.58;38.73;93813.81;5124943;28;20129;-74
2022/09/19 09:42:43;;;;;;;6.30;1.60;;;;;;;14.56;38.65;93799.94;5124564;28;19918;-74
2022/09/19 09:45:35;;;;;;;5.63;1.42;;;;;;;14.67;36.75;93804.84;5124350;28;20035;-77
2022/09/19 09:48:32;;;;;;;8.27;1.40;;;;;;;14.74;38.51;93799.69;5124423;28;20039;-75
2022/09/19 09:51:00;;;;;;;10.15;1.80;;;;;;;14.77;38.98;93805.13;5124202;28;20230;-76
2022/09/19 09:53:43;;;;;;;4.30;1.67;;;;;;;14.64;38.45;93809.75;5122418;28;20027;-74
2022/09/19 09:56:27;;;;;;;3.42;1.45;;;;;;;14.76;38.09;93803.59;5122535;28;20030;-75
2022/09/19 10:05:36;;;;;;;9.25;1.67;;;;;;;15.09;38.97;93793.75;5123622;28;20367;-75
2022/09/19 10:08:41;;;;;;;6.57;2.05;;;;;;;15.32;39.63;93791.25;5123898;28;20023;-75
2022/09/19 10:11:18;;;;;;;4.03;1.42;;;;;;;15.47;39.51;93792.41;5112691;28;20024;-75
2022/09/19 10:14:01;;;;;;;5.03;1.60;;;;;;;15.66;39.38;93789.81;5123983;28;20035;-75
2022/09/19 10:16:32;;;;;;;8.52;1.88;;;;;;;15.80;38.07;93779.44;5123887;28;20340;-75
2022/09/19 10:19:14;;;;;;;2.28;1.38;;;;;;;15.70;37.65;93779.19;5124074;28;20020;-75
2022/09/19 10:21:40;;;;;;;5.27;1.70;;;;;;;15.76;37.80;93781.28;5123980;28;20011;-76
2022/09/19 10:24:42;;;;;;;5.85;1.75;;;;;;;15.78;38.85;93775.56;5123685;28;20332;-74
2022/09/19 10:27:15;;;;;;;4.90;1.35;;;;;;;15.97;39.18;93770.25;5123612;28;20389;-74
2022/09/19 10:30:10;;;;;;;4.47;2.03;;;;;;;16.15;37.65;93773.34;5123559;28;20272;-75
2022/09/19 10:32:37;;;;;;;3.83;1.63;;;;;;;16.27;38.24;93758.25;5100012;28;20224;-74
2022/09/19 10:35:29;;;;;;;6.35;1.80;;;;;;;16.45;38.79;93759.41;5123943;28;20207;-76
2022/09/19 10:38:13;;;;;;;6.25;1.85;;;;;;;16.65;38.24;93760.97;5123579;28;20156;-76
2022/09/19 10:40:52;;;;;;;6.63;1.75;;;;;;;16.73;36.20;93747.66;5123469;28;20221;-75
2022/09/19 10:43:42;;;;;;;6.28;2.03;;;;;;;16.82;38.00;93751.72;5123320;28;20020;-75
2022/09/19 10:46:16;;;;;;;4.97;1.95;;;;;;;16.97;37.73;93742.00;5091920;28;20051;-76
2022/09/19 10:48:50;;;;;;;7.13;1.48;;;;;;;17.08;36.74;93739.53;5123414;28;20068;-76
2022/09/19 10:51:16;;;;;;;2.72;1.30;;;;;;;17.18;36.87;93730.84;5123196;28;20337;-75
2022/09/19 10:53:48;;;;;;;8.82;1.63;;;;;;;17.31;36.86;93728.75;5123338;28;20034;-75
2022/09/19 10:56:39;;;;;;;5.13;2.10;;;;;;;17.47;35.72;93723.25;5123495;28;20020;-74
2022/09/19 10:59:10;;;;;;;8.30;1.63;;;;;;;17.55;35.22;93726.84;5116096;28;20041;-74
2022/09/19 11:01:36;;;;;;;5.17;1.77;;;;;;;17.59;35.12;93725.00;5123252;28;20023;-75
2022/09/19 11:04:03;;;;;;;3.45;1.42;;;;;;;17.56;36.50;93725.72;5123326;28;20072;-74
2022/09/19 11:06:30;;;;;;;6.35;1.88;;;;;;;17.69;35.70;93718.19;5123357;28;20088;-75
2022/09/19 11:08:56;;;;;;;13.15;1.55;;;;;;;17.84;35.44;93717.31;5122887;28;20245;-74
2022/09/19 11:11:38;;;;;;;4.10;1.65;;;;;;;17.99;35.26;93702.13;5122985;28;20020;-74
2022/09/19 11:14:07;;;;;;;;;;;;;;;18.14;34.60;93703.91;5123523;28;20023;-74
2022/09/19 11:17:08;;;;;;;4.20;1.67;;;;;;;18.24;33.80;93697.88;5123174;28;19904;-74
2022/09/19 11:19:56;;;;;;;11.88;1.70;;;;;;;18.35;33.36;93702.63;5118690;28;20095;-76
2022/09/19 11:22:31;;;;;;;7.70;1.98;;;;;;;18.44;33.51;93706.63;5123046;28;20021;-75
2022/09/19 11:25:11;;;;;;;6.18;2.17;;;;;;;18.36;31.29;93698.78;5122914;28;20015;-76
2022/09/19 11:27:47;;;;;;;4.07;1.55;;;;;;;18.23;32.32;93687.44;5123160;28;20244;-74
2022/09/19 11:30:19;;;;;;;7.70;1.42;;;;;;;18.31;33.38;93686.38;5122811;28;20024;-75
2022/09/19 11:33:09;;;;;;;5.63;1.40;;;;;;;18.33;31.99;93686.03;5122851;28;20091;-75
2022/09/19 11:35:44;;;;;;;6.05;2.42;;;;;;;18.44;32.78;93687.72;5123156;28;20099;-77
2022/09/19 11:38:33;;;;;;;8.30;1.75;;;;;;;18.61;32.49;93683.69;5123078;28;20027;-76
2022/09/19 11:41:11;;;;;;;5.03;1.15;;;;;;;18.78;32.89;93684.25;5122819;28;20024;-74
2022/09/19 11:44:02;;;;;;;5.70;1.45;;;;;;;19.01;33.29;93670.63;5124561;28;20015;-75
2022/09/19 11:46:49;;;;;;;6.00;2.13;;;;;;;19.22;32.35;93672.78;5102973;28;20333;-73
2022/09/19 11:49:51;;;;;;;6.55;1.85;;;;;;;19.39;31.16;93672.13;5126845;28;20237;-75
2022/09/19 11:52:35;;;;;;;7.60;1.75;;;;;;;19.55;31.18;93665.72;5126779;28;20041;-73
2022/09/19 11:55:19;;;;;;;5.93;1.52;;;;;;;19.69;30.23;93660.41;5126964;28;20070;-72
2022/09/19 11:57:58;;;;;;;9.93;1.77;;;;;;;19.76;29.38;93663.19;5126867;28;20206;-72
2022/09/19 12:00:28;;;;;;;5.85;1.80;;;;;;;19.81;30.51;93660.13;5126531;28;20023;-74
2022/09/19 12:03:13;;;;;;;6.18;1.20;;;;;;;20.03;30.46;93658.34;5108501;28;20033;-75
2022/09/19 12:05:57;;;;;;;3.83;1.65;;;;;;;20.27;29.42;93663.47;5126564;28;20024;-74
2022/09/19 12:09:04;;;;;;;4.70;1.55;;;;;;;20.40;28.45;93656.59;5126411;28;20051;-77
2022/09/19 12:11:41;;;;;;;8.18;2.85;;;;;;;20.51;28.99;93652.00;5107797;28;20422;-76
2022/09/19 12:14:19;;;;;;;8.20;1.98;;;;;;;20.43;28.34;93648.50;5126248;28;20057;-77